首页
METAR-TAF:

METAR-TAF

机场 :

羅利達拉姆國際機場

罗利 / 达勒姆, 北卡罗来纳州, 美国

纬度: 35-52-14N, 经度: 078-47-11W, 海拔: 133米

当前天气观测

该预报发布于28分钟前的20:51 UTC
风速5节,风向多变
温度 32°C
湿度 46%
气压 1013 hPa
能見度: 16.1公里
散云层高于6500英尺
多云层高于25000英尺

METAR: KRDU 062051Z VRB05KT 10SM SCT065 BKN250 32/19 A2990 RMK AO2 SLP118 T03170194 58012

时间: 17:19 (21:19 UTC)

预报

该预报发布于3小时和39分钟前的17:40 UTC
预报有效从06日的 18点(UTC)到 07日的 18点(UTC)
风速5节,风向北转西北
能見度: 10公里
多云层高于4000英尺
多云层高于25000英尺
从 07日的 0000点(UTC)
风速3节,风向多变
能見度: 10公里
散云层高于5000英尺
多云层高于25000英尺
从 07日的 1200点(UTC)
风速6节,风向东转东北
能見度: 10公里
多云层高于25000英尺

TAF: KRDU 061740Z 0618/0718 33005KT P6SM BKN040 BKN250 FM070000 VRB03KT P6SM SCT050 BKN250 FM071200 06006KT P6SM BKN250

超过4000个机场的气象观测和天气预报(METAR&TAF报告)。

可查询的气象台以黄色和红色小点在地图上表示。

将鼠标移到小点上方,可查看气象台名称。

然后点击查看天气观测和预报。

如需切换地图:点击带黑十字的绿色按钮放大地图;点击带横线的绿色按钮缩小地图;或者点击绿色箭头查看邻近地区的地图。


METAR-TAF: